DLH042 EDDF-EDDH
Flight info
| Callsign | DLH042 |
|---|---|
| Flight time | 0h 47m |
| Altitude | 33000 |
| Route | MARUN3W/25C MARUN Y150 TOLGI DCT SAS P605 NOLGO NOLGO3P |
| Aircraft | A319/M-SADE2E3FGILORWXYZ/HB1 |
Departure
| Time | 2026-05-04 14:17 |
|---|---|
| Airport | Frankfurt Main Airport (EDDF) |
Arrival
| Time | 2026-05-04 15:04 |
|---|---|
| Airport | Hamburg Helmut Schmidt Airport (EDDH) |
| Time | Latitude | Longitude | Altitude | Speed | Heading |
|---|---|---|---|---|---|
| 2026-05-04 14:00 | 50.04831 | 8.58836 | 365 ft | 0 kts | 339° |
| 2026-05-04 14:00 | 50.04899 | 8.58796 | 366 ft | 0 kts | 160° |
| 2026-05-04 14:10 | 50.04909 | 8.58791 | 365 ft | 3 kts | 160° |
| 2026-05-04 14:10 | 50.04927 | 8.58780 | 364 ft | 3 kts | 162° |
| 2026-05-04 14:10 | 50.04945 | 8.58777 | 360 ft | 3 kts | 212° |
| 2026-05-04 14:10 | 50.04958 | 8.58797 | 360 ft | 2 kts | 247° |
| 2026-05-04 14:11 | 50.04962 | 8.58813 | 360 ft | 3 kts | 250° |
| 2026-05-04 14:11 | 50.04966 | 8.58828 | 364 ft | 0 kts | 250° |
| 2026-05-04 14:13 | 50.04963 | 8.58817 | 360 ft | 3 kts | 249° |
| 2026-05-04 14:13 | 50.04951 | 8.58767 | 362 ft | 7 kts | 250° |
| 2026-05-04 14:13 | 50.04928 | 8.58695 | 360 ft | 8 kts | 222° |
| 2026-05-04 14:13 | 50.04875 | 8.58690 | 362 ft | 9 kts | 159° |
| 2026-05-04 14:14 | 50.04814 | 8.58727 | 367 ft | 10 kts | 159° |
| 2026-05-04 14:14 | 50.04666 | 8.58762 | 370 ft | 12 kts | 187° |
| 2026-05-04 14:14 | 50.04588 | 8.58720 | 371 ft | 12 kts | 219° |
| 2026-05-04 14:15 | 50.04490 | 8.58600 | 371 ft | 6 kts | 250° |
| 2026-05-04 14:15 | 50.04489 | 8.58597 | 371 ft | 0 kts | 250° |
| 2026-05-04 14:16 | 50.04485 | 8.58579 | 370 ft | 7 kts | 250° |
| 2026-05-04 14:16 | 50.04375 | 8.58122 | 369 ft | 86 kts | 249° |
| 2026-05-04 14:17 | 50.03741 | 8.55433 | 1065 ft | 144 kts | 248° |
| 2026-05-04 14:17 | 50.03391 | 8.53969 | 1826 ft | 148 kts | 250° |
| 2026-05-04 14:17 | 50.02559 | 8.50638 | 2970 ft | 194 kts | 242° |
| 2026-05-04 14:18 | 50.01655 | 8.49014 | 3898 ft | 204 kts | 218° |
| 2026-05-04 14:18 | 49.98869 | 8.47711 | 5441 ft | 215 kts | 191° |
| 2026-05-04 14:19 | 49.95933 | 8.47013 | 7164 ft | 213 kts | 195° |
| 2026-05-04 14:19 | 49.94439 | 8.46345 | 7819 ft | 235 kts | 197° |
| 2026-05-04 14:19 | 49.92839 | 8.45572 | 8722 ft | 245 kts | 201° |
| 2026-05-04 14:19 | 49.91444 | 8.44045 | 9738 ft | 252 kts | 228° |
| 2026-05-04 14:20 | 49.90666 | 8.41548 | 10718 ft | 263 kts | 257° |
| 2026-05-04 14:20 | 49.90801 | 8.38670 | 11513 ft | 280 kts | 285° |
| 2026-05-04 14:20 | 49.91915 | 8.36208 | 11881 ft | 286 kts | 320° |
| 2026-05-04 14:21 | 49.95726 | 8.33490 | 12734 ft | 325 kts | 336° |
| 2026-05-04 14:21 | 49.97855 | 8.32152 | 13532 ft | 336 kts | 336° |
| 2026-05-04 14:21 | 50.00052 | 8.30764 | 14276 ft | 345 kts | 336° |
| 2026-05-04 14:21 | 50.02345 | 8.29533 | 14943 ft | 355 kts | 345° |
| 2026-05-04 14:22 | 50.04829 | 8.29002 | 15439 ft | 366 kts | 358° |
| 2026-05-04 14:22 | 50.07384 | 8.29306 | 15938 ft | 372 kts | 10° |
| 2026-05-04 14:22 | 50.09876 | 8.30422 | 16466 ft | 375 kts | 19° |
| 2026-05-04 14:22 | 50.12333 | 8.31816 | 17201 ft | 377 kts | 25° |
| 2026-05-04 14:23 | 50.16862 | 8.36081 | 18531 ft | 387 kts | 33° |
| 2026-05-04 14:23 | 50.19152 | 8.38329 | 19002 ft | 391 kts | 33° |
| 2026-05-04 14:23 | 50.21470 | 8.40615 | 19416 ft | 395 kts | 33° |
| 2026-05-04 14:24 | 50.23808 | 8.42923 | 19981 ft | 400 kts | 33° |
| 2026-05-04 14:24 | 50.26165 | 8.45260 | 20613 ft | 404 kts | 33° |
| 2026-05-04 14:24 | 50.28549 | 8.47639 | 21225 ft | 408 kts | 33° |
| 2026-05-04 14:24 | 50.30953 | 8.50050 | 21826 ft | 413 kts | 33° |
| 2026-05-04 14:25 | 50.33407 | 8.52526 | 22504 ft | 414 kts | 33° |
| 2026-05-04 14:25 | 50.38221 | 8.57419 | 24048 ft | 413 kts | 33° |
| 2026-05-04 14:25 | 50.40636 | 8.59890 | 24680 ft | 416 kts | 33° |
| 2026-05-04 14:26 | 50.43063 | 8.62382 | 25277 ft | 418 kts | 33° |
| 2026-05-04 14:26 | 50.45577 | 8.64683 | 25840 ft | 420 kts | 27° |
| 2026-05-04 14:26 | 50.48184 | 8.66847 | 26210 ft | 428 kts | 26° |
| 2026-05-04 14:26 | 50.50854 | 8.68996 | 26593 ft | 435 kts | 26° |
| 2026-05-04 14:27 | 50.53575 | 8.71157 | 26982 ft | 441 kts | 25° |
| 2026-05-04 14:27 | 50.56326 | 8.73342 | 27375 ft | 446 kts | 25° |
| 2026-05-04 14:27 | 50.59113 | 8.75569 | 27768 ft | 451 kts | 26° |
| 2026-05-04 14:27 | 50.61923 | 8.77834 | 27956 ft | 455 kts | 26° |
| 2026-05-04 14:28 | 50.64746 | 8.80124 | 28151 ft | 458 kts | 26° |
| 2026-05-04 14:28 | 50.67584 | 8.82440 | 28655 ft | 460 kts | 26° |
| 2026-05-04 14:28 | 50.70430 | 8.84788 | 29120 ft | 464 kts | 26° |
| 2026-05-04 14:28 | 50.73295 | 8.87166 | 29566 ft | 467 kts | 26° |
| 2026-05-04 14:29 | 50.79080 | 8.91988 | 30376 ft | 473 kts | 26° |
| 2026-05-04 14:29 | 50.84935 | 8.96863 | 31098 ft | 478 kts | 26° |
| 2026-05-04 14:30 | 50.87889 | 8.99315 | 31448 ft | 481 kts | 26° |
| 2026-05-04 14:30 | 50.90858 | 9.01779 | 31797 ft | 483 kts | 25° |
| 2026-05-04 14:30 | 50.96809 | 9.06742 | 32737 ft | 482 kts | 25° |
| 2026-05-04 14:31 | 50.99778 | 9.09221 | 32924 ft | 482 kts | 25° |
| 2026-05-04 14:31 | 51.05533 | 9.14055 | 32949 ft | 456 kts | 25° |
| 2026-05-04 14:32 | 51.11140 | 9.18776 | 32949 ft | 451 kts | 25° |
| 2026-05-04 14:32 | 51.16675 | 9.23454 | 32947 ft | 451 kts | 25° |
| 2026-05-04 14:33 | 51.22182 | 9.28224 | 32949 ft | 450 kts | 25° |
| 2026-05-04 14:33 | 51.27690 | 9.32993 | 32971 ft | 449 kts | 21° |
| 2026-05-04 14:34 | 51.33572 | 9.35934 | 32976 ft | 441 kts | 7° |
| 2026-05-04 14:34 | 51.39572 | 9.38005 | 32971 ft | 441 kts | 7° |
| 2026-05-04 14:35 | 51.45566 | 9.40110 | 32970 ft | 441 kts | 7° |
| 2026-05-04 14:35 | 51.51561 | 9.42219 | 32967 ft | 441 kts | 7° |
| 2026-05-04 14:36 | 51.57563 | 9.44325 | 32962 ft | 441 kts | 7° |
| 2026-05-04 14:36 | 51.63569 | 9.46436 | 32956 ft | 442 kts | 7° |
| 2026-05-04 14:37 | 51.69567 | 9.48557 | 32955 ft | 442 kts | 7° |
| 2026-05-04 14:37 | 51.75570 | 9.50678 | 32946 ft | 442 kts | 7° |
| 2026-05-04 14:38 | 51.81574 | 9.52865 | 32947 ft | 444 kts | 11° |
| 2026-05-04 14:38 | 51.87284 | 9.56889 | 32949 ft | 451 kts | 23° |
| 2026-05-04 14:39 | 51.92872 | 9.61531 | 32948 ft | 451 kts | 22° |
| 2026-05-04 14:39 | 51.98469 | 9.66138 | 32945 ft | 451 kts | 22° |
| 2026-05-04 14:40 | 52.05950 | 9.72352 | 32953 ft | 452 kts | 23° |
| 2026-05-04 14:40 | 52.11536 | 9.77037 | 32958 ft | 452 kts | 23° |
| 2026-05-04 14:41 | 52.17160 | 9.81748 | 32973 ft | 466 kts | 23° |
| 2026-05-04 14:41 | 52.23044 | 9.86682 | 32973 ft | 481 kts | 22° |
| 2026-05-04 14:42 | 52.29291 | 9.90265 | 32970 ft | 475 kts | 9° |
| 2026-05-04 14:42 | 52.35675 | 9.93066 | 32977 ft | 475 kts | 9° |
| 2026-05-04 14:43 | 52.42060 | 9.95881 | 32971 ft | 476 kts | 9° |
| 2026-05-04 14:43 | 52.48452 | 9.98717 | 32974 ft | 476 kts | 9° |
| 2026-05-04 14:44 | 52.54848 | 10.01553 | 32977 ft | 476 kts | 9° |
| 2026-05-04 14:44 | 52.61244 | 10.04389 | 32979 ft | 476 kts | 9° |
| 2026-05-04 14:45 | 52.67638 | 10.07247 | 32980 ft | 475 kts | 9° |
| 2026-05-04 14:45 | 52.70858 | 10.08699 | 32116 ft | 476 kts | 9° |
| 2026-05-04 14:45 | 52.74116 | 10.10158 | 30409 ft | 495 kts | 9° |
| 2026-05-04 14:46 | 52.77504 | 10.11504 | 28812 ft | 502 kts | 3° |
| 2026-05-04 14:46 | 52.80972 | 10.11873 | 27437 ft | 499 kts | 355° |
| 2026-05-04 14:46 | 52.84452 | 10.12009 | 26029 ft | 502 kts | 356° |
| 2026-05-04 14:46 | 52.87957 | 10.12131 | 24727 ft | 504 kts | 356° |
| 2026-05-04 14:47 | 52.91438 | 10.12244 | 23902 ft | 494 kts | 356° |
| 2026-05-04 14:47 | 52.94843 | 10.12356 | 22999 ft | 485 kts | 356° |
| 2026-05-04 14:47 | 52.98194 | 10.12463 | 22035 ft | 478 kts | 356° |
| 2026-05-04 14:47 | 53.01491 | 10.12567 | 21127 ft | 471 kts | 356° |
| 2026-05-04 14:48 | 53.04747 | 10.12675 | 20255 ft | 465 kts | 357° |
| 2026-05-04 14:48 | 53.07955 | 10.12785 | 19419 ft | 459 kts | 357° |
| 2026-05-04 14:48 | 53.11125 | 10.12897 | 18622 ft | 453 kts | 357° |
| 2026-05-04 14:48 | 53.14256 | 10.13002 | 17791 ft | 447 kts | 357° |
| 2026-05-04 14:49 | 53.17344 | 10.13101 | 16953 ft | 441 kts | 357° |
| 2026-05-04 14:49 | 53.20391 | 10.13204 | 16178 ft | 435 kts | 358° |
| 2026-05-04 14:49 | 53.23397 | 10.13308 | 15443 ft | 429 kts | 358° |
| 2026-05-04 14:49 | 53.26358 | 10.13410 | 14745 ft | 424 kts | 358° |
| 2026-05-04 14:50 | 53.29288 | 10.13503 | 14098 ft | 419 kts | 358° |
| 2026-05-04 14:50 | 53.32186 | 10.13594 | 13436 ft | 414 kts | 358° |
| 2026-05-04 14:50 | 53.35049 | 10.13686 | 12713 ft | 409 kts | 358° |
| 2026-05-04 14:50 | 53.37878 | 10.13776 | 11981 ft | 405 kts | 358° |
| 2026-05-04 14:51 | 53.40675 | 10.13734 | 11222 ft | 399 kts | 354° |
| 2026-05-04 14:51 | 53.43430 | 10.13462 | 10470 ft | 394 kts | 353° |
| 2026-05-04 14:51 | 53.46128 | 10.13127 | 10137 ft | 379 kts | 353° |
| 2026-05-04 14:51 | 53.48675 | 10.12783 | 10114 ft | 356 kts | 352° |
| 2026-05-04 14:52 | 53.51066 | 10.12453 | 10113 ft | 334 kts | 352° |
| 2026-05-04 14:52 | 53.53324 | 10.12146 | 10105 ft | 316 kts | 352° |
| 2026-05-04 14:52 | 53.55486 | 10.11860 | 10090 ft | 300 kts | 352° |
| 2026-05-04 14:52 | 53.57544 | 10.12152 | 9850 ft | 299 kts | 13° |
| 2026-05-04 14:53 | 53.59388 | 10.13755 | 9510 ft | 301 kts | 37° |
| 2026-05-04 14:53 | 53.60815 | 10.16336 | 9167 ft | 301 kts | 49° |
| 2026-05-04 14:53 | 53.62155 | 10.19040 | 8763 ft | 300 kts | 49° |
| 2026-05-04 14:53 | 53.63483 | 10.21730 | 8373 ft | 297 kts | 49° |
| 2026-05-04 14:54 | 53.64801 | 10.24401 | 7977 ft | 296 kts | 49° |
| 2026-05-04 14:54 | 53.66110 | 10.27052 | 7580 ft | 293 kts | 49° |
| 2026-05-04 14:54 | 53.67413 | 10.29686 | 7181 ft | 291 kts | 48° |
| 2026-05-04 14:54 | 53.68705 | 10.32300 | 6792 ft | 289 kts | 48° |
| 2026-05-04 14:55 | 53.69992 | 10.34901 | 6407 ft | 287 kts | 48° |
| 2026-05-04 14:55 | 53.71245 | 10.37436 | 6266 ft | 275 kts | 48° |
| 2026-05-04 14:55 | 53.72447 | 10.39867 | 6136 ft | 264 kts | 48° |
| 2026-05-04 14:55 | 53.73595 | 10.42196 | 6009 ft | 253 kts | 48° |
| 2026-05-04 14:56 | 53.74808 | 10.44235 | 5876 ft | 239 kts | 28° |
| 2026-05-04 14:56 | 53.76316 | 10.44977 | 5748 ft | 219 kts | 353° |
| 2026-05-04 14:56 | 53.77672 | 10.44211 | 5619 ft | 201 kts | 317° |
| 2026-05-04 14:56 | 53.78456 | 10.42381 | 5488 ft | 189 kts | 289° |
| 2026-05-04 14:57 | 53.78621 | 10.40248 | 5359 ft | 182 kts | 263° |
| 2026-05-04 14:57 | 53.78429 | 10.38163 | 5185 ft | 178 kts | 261° |
| 2026-05-04 14:57 | 53.78236 | 10.36107 | 5000 ft | 176 kts | 261° |
| 2026-05-04 14:57 | 53.78040 | 10.34068 | 4790 ft | 175 kts | 259° |
| 2026-05-04 14:58 | 53.77550 | 10.32185 | 4562 ft | 177 kts | 241° |
| 2026-05-04 14:58 | 53.76934 | 10.30394 | 4315 ft | 177 kts | 242° |
| 2026-05-04 14:58 | 53.76318 | 10.28588 | 4070 ft | 177 kts | 241° |
| 2026-05-04 14:58 | 53.75705 | 10.26788 | 3866 ft | 176 kts | 241° |
| 2026-05-04 14:59 | 53.75096 | 10.25001 | 3644 ft | 175 kts | 242° |
| 2026-05-04 14:59 | 53.74486 | 10.23216 | 3431 ft | 175 kts | 241° |
| 2026-05-04 14:59 | 53.73233 | 10.19781 | 3077 ft | 167 kts | 236° |
| 2026-05-04 15:00 | 53.72533 | 10.18224 | 2845 ft | 166 kts | 234° |
| 2026-05-04 15:00 | 53.71807 | 10.16695 | 2625 ft | 164 kts | 233° |
| 2026-05-04 15:00 | 53.71090 | 10.15215 | 2406 ft | 161 kts | 234° |
| 2026-05-04 15:01 | 53.69683 | 10.12336 | 1981 ft | 157 kts | 233° |
| 2026-05-04 15:01 | 53.68988 | 10.10920 | 1771 ft | 156 kts | 234° |
| 2026-05-04 15:01 | 53.68298 | 10.09513 | 1560 ft | 155 kts | 233° |
| 2026-05-04 15:01 | 53.67622 | 10.08139 | 1355 ft | 148 kts | 235° |
| 2026-05-04 15:02 | 53.67000 | 10.06878 | 1164 ft | 134 kts | 233° |
| 2026-05-04 15:02 | 53.66423 | 10.05702 | 984 ft | 128 kts | 235° |
| 2026-05-04 15:02 | 53.65850 | 10.04541 | 801 ft | 129 kts | 233° |
| 2026-05-04 15:02 | 53.65281 | 10.03384 | 623 ft | 129 kts | 235° |
| 2026-05-04 15:03 | 53.64711 | 10.02220 | 429 ft | 131 kts | 234° |
| 2026-05-04 15:03 | 53.64135 | 10.01051 | 261 ft | 129 kts | 233° |
| 2026-05-04 15:03 | 53.63561 | 9.99888 | 84 ft | 129 kts | 234° |
| 2026-05-04 15:03 | 53.63046 | 9.98837 | 46 ft | 96 kts | 230° |
| 2026-05-04 15:04 | 53.62727 | 9.98194 | 43 ft | 47 kts | 230° |
| 2026-05-04 15:04 | 53.62570 | 9.97877 | 41 ft | 32 kts | 230° |
| 2026-05-04 15:04 | 53.62485 | 9.97768 | 41 ft | 11 kts | 158° |
| 2026-05-04 15:04 | 53.62432 | 9.97847 | 44 ft | 9 kts | 124° |
| 2026-05-04 15:05 | 53.62434 | 9.97965 | 47 ft | 12 kts | 78° |
| 2026-05-04 15:05 | 53.62479 | 9.98123 | 47 ft | 18 kts | 53° |
| 2026-05-04 15:05 | 53.62565 | 9.98298 | 47 ft | 20 kts | 50° |
| 2026-05-04 15:05 | 53.62657 | 9.98485 | 47 ft | 21 kts | 50° |
| 2026-05-04 15:06 | 53.62755 | 9.98684 | 47 ft | 23 kts | 50° |
| 2026-05-04 15:06 | 53.62858 | 9.98892 | 47 ft | 24 kts | 50° |
| 2026-05-04 15:06 | 53.62960 | 9.99100 | 47 ft | 22 kts | 51° |
| 2026-05-04 15:07 | 53.63124 | 9.99463 | 46 ft | 18 kts | 57° |
| 2026-05-04 15:07 | 53.63197 | 9.99620 | 48 ft | 15 kts | 50° |
| 2026-05-04 15:07 | 53.63264 | 9.99739 | 49 ft | 14 kts | 43° |
| 2026-05-04 15:07 | 53.63331 | 9.99867 | 49 ft | 15 kts | 50° |
| 2026-05-04 15:08 | 53.63397 | 10.00000 | 49 ft | 14 kts | 50° |
| 2026-05-04 15:08 | 53.63442 | 10.00135 | 49 ft | 13 kts | 78° |
| 2026-05-04 15:08 | 53.63449 | 10.00266 | 49 ft | 6 kts | 86° |
| 2026-05-04 15:08 | 53.63450 | 10.00309 | 49 ft | 2 kts | 87° |
| 2026-05-04 15:09 | 53.63451 | 10.00318 | 49 ft | 0 kts | 86° |